sensor_id;sensor_type;location;lat;lon;timestamp;temperature;humidity
69628;DHT22;56850;51.984;5.088;2022-07-25T00:00:26;28.30;49.90
69628;DHT22;56850;51.984;5.088;2022-07-25T00:02:53;28.30;50.00
69628;DHT22;56850;51.984;5.088;2022-07-25T00:05:20;28.20;50.10
69628;DHT22;56850;51.984;5.088;2022-07-25T00:07:48;28.20;50.10
69628;DHT22;56850;51.984;5.088;2022-07-25T00:10:15;28.10;50.30
69628;DHT22;56850;51.984;5.088;2022-07-25T00:12:43;28.10;50.30
69628;DHT22;56850;51.984;5.088;2022-07-25T00:15:10;28.10;50.40
69628;DHT22;56850;51.984;5.088;2022-07-25T00:17:38;28.00;50.40
69628;DHT22;56850;51.984;5.088;2022-07-25T00:20:06;28.00;50.40
69628;DHT22;56850;51.984;5.088;2022-07-25T00:22:34;28.00;50.50
69628;DHT22;56850;51.984;5.088;2022-07-25T00:25:01;27.90;50.60
69628;DHT22;56850;51.984;5.088;2022-07-25T00:27:28;27.90;50.60
69628;DHT22;56850;51.984;5.088;2022-07-25T00:29:55;27.90;50.60
69628;DHT22;56850;51.984;5.088;2022-07-25T00:32:22;27.80;50.70
69628;DHT22;56850;51.984;5.088;2022-07-25T00:34:49;27.80;50.70
69628;DHT22;56850;51.984;5.088;2022-07-25T00:37:16;27.80;50.70
69628;DHT22;56850;51.984;5.088;2022-07-25T00:39:42;27.80;50.80
69628;DHT22;56850;51.984;5.088;2022-07-25T00:42:09;27.70;50.80
69628;DHT22;56850;51.984;5.088;2022-07-25T00:44:36;27.70;50.90
69628;DHT22;56850;51.984;5.088;2022-07-25T00:47:04;27.60;51.00
69628;DHT22;56850;51.984;5.088;2022-07-25T00:49:31;27.60;51.00
69628;DHT22;56850;51.984;5.088;2022-07-25T00:51:58;27.60;51.10
69628;DHT22;56850;51.984;5.088;2022-07-25T00:54:25;27.50;51.20
69628;DHT22;56850;51.984;5.088;2022-07-25T00:56:52;27.50;51.20
69628;DHT22;56850;51.984;5.088;2022-07-25T00:59:19;27.40;51.30
69628;DHT22;56850;51.984;5.088;2022-07-25T01:01:46;27.40;51.30
69628;DHT22;56850;51.984;5.088;2022-07-25T01:04:15;27.30;51.40
69628;DHT22;56850;51.984;5.088;2022-07-25T01:06:42;27.20;51.70
69628;DHT22;56850;51.984;5.088;2022-07-25T01:09:09;27.10;51.90
69628;DHT22;56850;51.984;5.088;2022-07-25T01:11:37;27.10;52.10
69628;DHT22;56850;51.984;5.088;2022-07-25T01:14:04;26.90;52.40
69628;DHT22;56850;51.984;5.088;2022-07-25T01:16:33;26.90;52.60
69628;DHT22;56850;51.984;5.088;2022-07-25T01:19:00;26.80;52.80
69628;DHT22;56850;51.984;5.088;2022-07-25T01:21:27;26.80;53.00
69628;DHT22;56850;51.984;5.088;2022-07-25T01:23:54;26.80;53.10
69628;DHT22;56850;51.984;5.088;2022-07-25T01:26:21;26.80;53.10
69628;DHT22;56850;51.984;5.088;2022-07-25T01:28:48;26.80;53.20
69628;DHT22;56850;51.984;5.088;2022-07-25T01:31:16;26.80;53.20
69628;DHT22;56850;51.984;5.088;2022-07-25T01:33:43;26.80;53.20
69628;DHT22;56850;51.984;5.088;2022-07-25T01:36:10;26.90;53.20
69628;DHT22;56850;51.984;5.088;2022-07-25T01:38:37;26.80;53.20
69628;DHT22;56850;51.984;5.088;2022-07-25T01:41:04;26.80;53.30
69628;DHT22;56850;51.984;5.088;2022-07-25T01:43:31;26.80;53.40
69628;DHT22;56850;51.984;5.088;2022-07-25T01:45:58;26.80;53.40
69628;DHT22;56850;51.984;5.088;2022-07-25T01:48:26;26.80;53.40
69628;DHT22;56850;51.984;5.088;2022-07-25T01:50:53;26.80;53.50
69628;DHT22;56850;51.984;5.088;2022-07-25T01:53:20;26.80;53.50
69628;DHT22;56850;51.984;5.088;2022-07-25T01:55:47;26.80;53.50
69628;DHT22;56850;51.984;5.088;2022-07-25T01:58:14;26.80;53.40
69628;DHT22;56850;51.984;5.088;2022-07-25T02:00:45;26.80;53.40
69628;DHT22;56850;51.984;5.088;2022-07-25T02:03:12;26.80;53.30
69628;DHT22;56850;51.984;5.088;2022-07-25T02:06:03;26.80;53.20
69628;DHT22;56850;51.984;5.088;2022-07-25T02:08:31;26.70;53.20
69628;DHT22;56850;51.984;5.088;2022-07-25T02:10:59;26.70;53.20
69628;DHT22;56850;51.984;5.088;2022-07-25T02:13:26;26.70;53.10
69628;DHT22;56850;51.984;5.088;2022-07-25T02:15:53;26.70;53.10
69628;DHT22;56850;51.984;5.088;2022-07-25T02:18:21;26.70;53.10
69628;DHT22;56850;51.984;5.088;2022-07-25T02:20:48;26.70;53.20
69628;DHT22;56850;51.984;5.088;2022-07-25T02:23:15;26.70;53.10
69628;DHT22;56850;51.984;5.088;2022-07-25T02:25:42;26.60;53.10
69628;DHT22;56850;51.984;5.088;2022-07-25T02:28:09;26.60;53.20
69628;DHT22;56850;51.984;5.088;2022-07-25T02:30:36;26.60;53.30
69628;DHT22;56850;51.984;5.088;2022-07-25T02:33:04;26.60;53.40
69628;DHT22;56850;51.984;5.088;2022-07-25T02:35:31;26.50;53.40
69628;DHT22;56850;51.984;5.088;2022-07-25T02:37:58;26.50;53.50
69628;DHT22;56850;51.984;5.088;2022-07-25T02:40:25;26.50;53.70
69628;DHT22;56850;51.984;5.088;2022-07-25T02:42:52;26.40;53.80
69628;DHT22;56850;51.984;5.088;2022-07-25T02:45:19;26.40;53.90
69628;DHT22;56850;51.984;5.088;2022-07-25T02:47:46;26.40;53.90
69628;DHT22;56850;51.984;5.088;2022-07-25T02:50:13;26.30;53.90
69628;DHT22;56850;51.984;5.088;2022-07-25T02:52:41;26.30;53.90
69628;DHT22;56850;51.984;5.088;2022-07-25T02:55:09;26.30;53.80
69628;DHT22;56850;51.984;5.088;2022-07-25T02:57:37;26.30;53.90
69628;DHT22;56850;51.984;5.088;2022-07-25T03:00:05;26.20;53.90
69628;DHT22;56850;51.984;5.088;2022-07-25T03:02:33;26.20;53.90
69628;DHT22;56850;51.984;5.088;2022-07-25T03:05:00;26.20;53.90
69628;DHT22;56850;51.984;5.088;2022-07-25T03:07:27;26.20;53.90
69628;DHT22;56850;51.984;5.088;2022-07-25T03:09:54;26.20;54.00
69628;DHT22;56850;51.984;5.088;2022-07-25T03:12:21;26.10;54.00
69628;DHT22;56850;51.984;5.088;2022-07-25T03:14:48;26.10;54.10
69628;DHT22;56850;51.984;5.088;2022-07-25T03:17:15;26.10;54.10
69628;DHT22;56850;51.984;5.088;2022-07-25T03:19:42;26.10;54.20
69628;DHT22;56850;51.984;5.088;2022-07-25T03:22:09;26.00;54.20
69628;DHT22;56850;51.984;5.088;2022-07-25T03:24:37;26.00;54.30
69628;DHT22;56850;51.984;5.088;2022-07-25T03:27:04;26.00;54.40
69628;DHT22;56850;51.984;5.088;2022-07-25T03:29:31;26.00;54.50
69628;DHT22;56850;51.984;5.088;2022-07-25T03:31:58;25.90;54.50
69628;DHT22;56850;51.984;5.088;2022-07-25T03:34:26;25.90;54.60
69628;DHT22;56850;51.984;5.088;2022-07-25T03:36:53;25.90;54.60
69628;DHT22;56850;51.984;5.088;2022-07-25T03:39:20;25.90;54.70
69628;DHT22;56850;51.984;5.088;2022-07-25T03:41:47;25.80;54.80
69628;DHT22;56850;51.984;5.088;2022-07-25T03:44:14;25.80;54.90
69628;DHT22;56850;51.984;5.088;2022-07-25T03:46:41;25.80;55.00
69628;DHT22;56850;51.984;5.088;2022-07-25T03:49:08;25.70;55.10
69628;DHT22;56850;51.984;5.088;2022-07-25T03:51:35;25.70;55.10
69628;DHT22;56850;51.984;5.088;2022-07-25T03:54:02;25.70;55.20
69628;DHT22;56850;51.984;5.088;2022-07-25T03:56:35;25.70;55.20
69628;DHT22;56850;51.984;5.088;2022-07-25T03:59:11;25.70;55.30
69628;DHT22;56850;51.984;5.088;2022-07-25T04:01:38;25.70;55.30
69628;DHT22;56850;51.984;5.088;2022-07-25T04:04:05;25.70;55.30
69628;DHT22;56850;51.984;5.088;2022-07-25T04:06:33;25.70;55.30
69628;DHT22;56850;51.984;5.088;2022-07-25T04:09:00;25.60;55.40
69628;DHT22;56850;51.984;5.088;2022-07-25T04:11:27;25.60;55.40
69628;DHT22;56850;51.984;5.088;2022-07-25T08:08:30;25.10;58.90
69628;DHT22;56850;51.984;5.088;2022-07-25T08:10:57;24.60;60.80
69628;DHT22;56850;51.984;5.088;2022-07-25T08:13:29;24.60;61.80
69628;DHT22;56850;51.984;5.088;2022-07-25T08:15:58;24.80;62.00
69628;DHT22;56850;51.984;5.088;2022-07-25T08:18:26;24.90;61.90
69628;DHT22;56850;51.984;5.088;2022-07-25T08:20:55;25.10;61.60
69628;DHT22;56850;51.984;5.088;2022-07-25T08:23:23;25.30;61.40
69628;DHT22;56850;51.984;5.088;2022-07-25T08:25:51;25.40;61.30
69628;DHT22;56850;51.984;5.088;2022-07-25T08:28:18;25.60;61.30
69628;DHT22;56850;51.984;5.088;2022-07-25T08:30:46;25.90;60.80
69628;DHT22;56850;51.984;5.088;2022-07-25T08:33:14;26.10;60.20
69628;DHT22;56850;51.984;5.088;2022-07-25T08:35:46;26.30;59.70
69628;DHT22;56850;51.984;5.088;2022-07-25T08:38:14;26.50;59.20
69628;DHT22;56850;51.984;5.088;2022-07-25T08:40:41;26.60;58.30
69628;DHT22;56850;51.984;5.088;2022-07-25T08:43:12;26.60;57.50
69628;DHT22;56850;51.984;5.088;2022-07-25T08:45:46;26.50;57.20
69628;DHT22;56850;51.984;5.088;2022-07-25T08:48:17;26.50;57.20
69628;DHT22;56850;51.984;5.088;2022-07-25T08:50:45;26.60;57.30
69628;DHT22;56850;51.984;5.088;2022-07-25T08:53:14;26.60;57.60
69628;DHT22;56850;51.984;5.088;2022-07-25T08:55:59;26.60;57.60
69628;DHT22;56850;51.984;5.088;2022-07-25T08:58:29;26.60;57.70
69628;DHT22;56850;51.984;5.088;2022-07-25T09:00:57;26.70;57.60
69628;DHT22;56850;51.984;5.088;2022-07-25T09:03:25;26.70;57.90
69628;DHT22;56850;51.984;5.088;2022-07-25T09:05:52;26.60;57.90
69628;DHT22;56850;51.984;5.088;2022-07-25T09:08:19;26.60;57.80
69628;DHT22;56850;51.984;5.088;2022-07-25T09:10:48;26.50;57.70
69628;DHT22;56850;51.984;5.088;2022-07-25T09:13:17;26.40;57.60
69628;DHT22;56850;51.984;5.088;2022-07-25T09:15:46;26.40;57.70
69628;DHT22;56850;51.984;5.088;2022-07-25T09:18:17;26.40;57.60
69628;DHT22;56850;51.984;5.088;2022-07-25T09:20:50;26.30;57.70
69628;DHT22;56850;51.984;5.088;2022-07-25T09:23:31;26.30;57.70
69628;DHT22;56850;51.984;5.088;2022-07-25T09:26:09;26.40;57.30
69628;DHT22;56850;51.984;5.088;2022-07-25T09:28:56;26.60;57.10
69628;DHT22;56850;51.984;5.088;2022-07-25T09:31:31;26.90;56.40
69628;DHT22;56850;51.984;5.088;2022-07-25T09:33:58;27.10;56.10
69628;DHT22;56850;51.984;5.088;2022-07-25T09:36:27;27.10;55.70
69628;DHT22;56850;51.984;5.088;2022-07-25T09:38:59;27.10;55.00
69628;DHT22;56850;51.984;5.088;2022-07-25T09:41:37;27.00;55.00
69628;DHT22;56850;51.984;5.088;2022-07-25T09:46:43;27.20;54.10
69628;DHT22;56850;51.984;5.088;2022-07-25T09:49:10;27.30;53.00
69628;DHT22;56850;51.984;5.088;2022-07-25T09:51:43;27.40;52.60
69628;DHT22;56850;51.984;5.088;2022-07-25T09:54:10;27.60;52.40
69628;DHT22;56850;51.984;5.088;2022-07-25T09:56:37;27.70;51.40
69628;DHT22;56850;51.984;5.088;2022-07-25T09:59:05;27.60;51.40
69628;DHT22;56850;51.984;5.088;2022-07-25T10:01:41;27.50;50.90
69628;DHT22;56850;51.984;5.088;2022-07-25T10:05:29;27.40;51.10
69628;DHT22;56850;51.984;5.088;2022-07-25T10:07:20;27.30;51.30
69628;DHT22;56850;51.984;5.088;2022-07-25T10:09:54;27.40;51.40
69628;DHT22;56850;51.984;5.088;2022-07-25T10:12:22;27.50;51.30
69628;DHT22;56850;51.984;5.088;2022-07-25T10:15:10;27.80;51.00
69628;DHT22;56850;51.984;5.088;2022-07-25T10:17:38;28.10;50.20
69628;DHT22;56850;51.984;5.088;2022-07-25T10:20:08;28.20;50.00
69628;DHT22;56850;51.984;5.088;2022-07-25T10:22:45;28.20;49.50
69628;DHT22;56850;51.984;5.088;2022-07-25T10:25:22;28.00;49.70
69628;DHT22;56850;51.984;5.088;2022-07-25T10:27:52;28.00;50.10
69628;DHT22;56850;51.984;5.088;2022-07-25T10:30:43;28.10;49.90
69628;DHT22;56850;51.984;5.088;2022-07-25T10:33:17;28.00;49.60
69628;DHT22;56850;51.984;5.088;2022-07-25T10:35:45;28.00;48.60
69628;DHT22;56850;51.984;5.088;2022-07-25T10:38:12;27.90;48.10
69628;DHT22;56850;51.984;5.088;2022-07-25T10:40:44;27.80;47.80
69628;DHT22;56850;51.984;5.088;2022-07-25T10:43:21;27.80;48.20
69628;DHT22;56850;51.984;5.088;2022-07-25T10:45:53;27.90;47.80
69628;DHT22;56850;51.984;5.088;2022-07-25T10:48:31;27.80;47.70
69628;DHT22;56850;51.984;5.088;2022-07-25T10:51:04;27.60;48.00
69628;DHT22;56850;51.984;5.088;2022-07-25T10:53:43;27.50;48.50
69628;DHT22;56850;51.984;5.088;2022-07-25T10:58:43;27.20;49.20
69628;DHT22;56850;51.984;5.088;2022-07-25T11:01:10;27.20;49.60
69628;DHT22;56850;51.984;5.088;2022-07-25T11:03:42;27.10;49.90
69628;DHT22;56850;51.984;5.088;2022-07-25T11:06:13;27.00;50.20
69628;DHT22;56850;51.984;5.088;2022-07-25T11:08:41;26.80;50.40
69628;DHT22;56850;51.984;5.088;2022-07-25T11:11:10;26.70;50.80
69628;DHT22;56850;51.984;5.088;2022-07-25T11:13:38;26.90;51.30
69628;DHT22;56850;51.984;5.088;2022-07-25T11:16:05;27.10;50.90
69628;DHT22;56850;51.984;5.088;2022-07-25T11:18:34;27.30;50.80
69628;DHT22;56850;51.984;5.088;2022-07-25T11:21:03;27.40;50.70
69628;DHT22;56850;51.984;5.088;2022-07-25T11:23:33;27.60;50.70
69628;DHT22;56850;51.984;5.088;2022-07-25T11:26:07;27.70;50.30
69628;DHT22;56850;51.984;5.088;2022-07-25T11:28:43;27.60;50.20
69628;DHT22;56850;51.984;5.088;2022-07-25T11:31:12;27.40;50.20
69628;DHT22;56850;51.984;5.088;2022-07-25T11:33:43;27.30;50.60
69628;DHT22;56850;51.984;5.088;2022-07-25T11:36:12;27.20;50.40
69628;DHT22;56850;51.984;5.088;2022-07-25T11:38:40;27.10;50.50
69628;DHT22;56850;51.984;5.088;2022-07-25T11:41:07;27.00;50.60
69628;DHT22;56850;51.984;5.088;2022-07-25T11:43:34;26.80;50.90
69628;DHT22;56850;51.984;5.088;2022-07-25T11:46:03;26.70;51.10
69628;DHT22;56850;51.984;5.088;2022-07-25T11:48:38;26.60;51.00
69628;DHT22;56850;51.984;5.088;2022-07-25T11:51:13;26.30;51.60
69628;DHT22;56850;51.984;5.088;2022-07-25T11:53:47;26.20;52.00
69628;DHT22;56850;51.984;5.088;2022-07-25T11:56:20;26.10;52.00
69628;DHT22;56850;51.984;5.088;2022-07-25T11:59:08;26.00;52.30
69628;DHT22;56850;51.984;5.088;2022-07-25T12:01:39;25.90;52.50
69628;DHT22;56850;51.984;5.088;2022-07-25T12:04:17;25.90;52.80
69628;DHT22;56850;51.984;5.088;2022-07-25T12:06:47;26.00;52.90
69628;DHT22;56850;51.984;5.088;2022-07-25T12:09:21;26.00;52.10
69628;DHT22;56850;51.984;5.088;2022-07-25T12:11:48;26.00;51.30
69628;DHT22;56850;51.984;5.088;2022-07-25T12:14:15;26.00;50.90
69628;DHT22;56850;51.984;5.088;2022-07-25T12:16:42;26.10;49.90
69628;DHT22;56850;51.984;5.088;2022-07-25T12:19:18;26.10;49.10
69628;DHT22;56850;51.984;5.088;2022-07-25T12:21:45;26.10;48.60
69628;DHT22;56850;51.984;5.088;2022-07-25T12:24:12;26.00;48.50
69628;DHT22;56850;51.984;5.088;2022-07-25T12:26:40;26.10;48.40
69628;DHT22;56850;51.984;5.088;2022-07-25T12:29:07;26.40;48.10
69628;DHT22;56850;51.984;5.088;2022-07-25T12:31:34;26.70;46.50
69628;DHT22;56850;51.984;5.088;2022-07-25T12:34:01;26.80;46.60
69628;DHT22;56850;51.984;5.088;2022-07-25T12:36:29;27.00;45.70
69628;DHT22;56850;51.984;5.088;2022-07-25T12:38:56;27.00;45.50
69628;DHT22;56850;51.984;5.088;2022-07-25T12:41:23;27.20;45.70
69628;DHT22;56850;51.984;5.088;2022-07-25T12:43:51;27.50;45.10
69628;DHT22;56850;51.984;5.088;2022-07-25T12:46:17;27.60;45.30
69628;DHT22;56850;51.984;5.088;2022-07-25T12:48:44;27.80;44.90
69628;DHT22;56850;51.984;5.088;2022-07-25T12:51:11;27.70;44.30
69628;DHT22;56850;51.984;5.088;2022-07-25T12:53:38;27.50;44.90
69628;DHT22;56850;51.984;5.088;2022-07-25T12:56:08;27.40;45.40
69628;DHT22;56850;51.984;5.088;2022-07-25T12:58:36;27.50;45.20
69628;DHT22;56850;51.984;5.088;2022-07-25T13:01:03;27.70;45.20
69628;DHT22;56850;51.984;5.088;2022-07-25T13:03:32;27.90;44.80
69628;DHT22;56850;51.984;5.088;2022-07-25T13:05:59;28.00;44.30
69628;DHT22;56850;51.984;5.088;2022-07-25T13:08:25;28.00;44.50
69628;DHT22;56850;51.984;5.088;2022-07-25T13:10:53;28.10;44.30
69628;DHT22;56850;51.984;5.088;2022-07-25T13:13:20;28.10;44.20
69628;DHT22;56850;51.984;5.088;2022-07-25T13:15:46;28.20;43.70
69628;DHT22;56850;51.984;5.088;2022-07-25T13:18:13;28.40;43.80
69628;DHT22;56850;51.984;5.088;2022-07-25T13:20:40;28.40;43.70
69628;DHT22;56850;51.984;5.088;2022-07-25T13:23:07;28.10;44.00
69628;DHT22;56850;51.984;5.088;2022-07-25T13:25:34;28.00;44.00
69628;DHT22;56850;51.984;5.088;2022-07-25T13:28:02;28.00;44.50
69628;DHT22;56850;51.984;5.088;2022-07-25T13:30:37;28.00;44.30
69628;DHT22;56850;51.984;5.088;2022-07-25T13:33:03;28.00;44.20
69628;DHT22;56850;51.984;5.088;2022-07-25T13:35:30;28.00;43.30
69628;DHT22;56850;51.984;5.088;2022-07-25T13:38:08;28.10;43.50
69628;DHT22;56850;51.984;5.088;2022-07-25T13:40:35;28.40;42.90
69628;DHT22;56850;51.984;5.088;2022-07-25T13:43:10;28.60;42.60
69628;DHT22;56850;51.984;5.088;2022-07-25T13:45:39;28.90;41.60
69628;DHT22;56850;51.984;5.088;2022-07-25T13:48:06;28.90;41.30
69628;DHT22;56850;51.984;5.088;2022-07-25T13:50:54;28.90;41.30
69628;DHT22;56850;51.984;5.088;2022-07-25T13:53:21;28.80;41.20
69628;DHT22;56850;51.984;5.088;2022-07-25T13:55:56;28.70;41.60
69628;DHT22;56850;51.984;5.088;2022-07-25T13:58:24;28.80;41.80
69628;DHT22;56850;51.984;5.088;2022-07-25T14:00:51;28.90;41.50
69628;DHT22;56850;51.984;5.088;2022-07-25T14:03:19;28.80;41.50
69628;DHT22;56850;51.984;5.088;2022-07-25T14:05:46;28.70;41.70
69628;DHT22;56850;51.984;5.088;2022-07-25T14:08:13;28.50;41.80
69628;DHT22;56850;51.984;5.088;2022-07-25T14:10:40;28.40;42.10
69628;DHT22;56850;51.984;5.088;2022-07-25T14:13:07;28.50;42.30
69628;DHT22;56850;51.984;5.088;2022-07-25T14:15:34;28.70;41.60
69628;DHT22;56850;51.984;5.088;2022-07-25T14:18:01;28.70;41.40
69628;DHT22;56850;51.984;5.088;2022-07-25T14:20:28;28.70;40.80
69628;DHT22;56850;51.984;5.088;2022-07-25T14:22:55;28.70;40.80
69628;DHT22;56850;51.984;5.088;2022-07-25T14:25:22;28.60;39.60
69628;DHT22;56850;51.984;5.088;2022-07-25T14:27:48;28.50;39.10
69628;DHT22;56850;51.984;5.088;2022-07-25T14:30:15;28.40;39.20
69628;DHT22;56850;51.984;5.088;2022-07-25T14:32:42;28.40;38.30
69628;DHT22;56850;51.984;5.088;2022-07-25T14:35:09;28.30;38.40
69628;DHT22;56850;51.984;5.088;2022-07-25T14:37:37;28.40;38.40
69628;DHT22;56850;51.984;5.088;2022-07-25T14:40:04;28.60;38.30
69628;DHT22;56850;51.984;5.088;2022-07-25T14:42:32;28.80;38.20
69628;DHT22;56850;51.984;5.088;2022-07-25T14:44:59;28.90;38.40
69628;DHT22;56850;51.984;5.088;2022-07-25T14:47:26;29.00;38.30
69628;DHT22;56850;51.984;5.088;2022-07-25T14:49:53;29.00;38.70
69628;DHT22;56850;51.984;5.088;2022-07-25T14:52:20;29.10;38.60
69628;DHT22;56850;51.984;5.088;2022-07-25T14:54:48;29.20;38.60
69628;DHT22;56850;51.984;5.088;2022-07-25T14:57:15;29.20;38.60
69628;DHT22;56850;51.984;5.088;2022-07-25T14:59:42;29.30;38.80
69628;DHT22;56850;51.984;5.088;2022-07-25T15:02:09;29.50;38.10
69628;DHT22;56850;51.984;5.088;2022-07-25T15:04:37;29.40;38.00
69628;DHT22;56850;51.984;5.088;2022-07-25T15:07:05;29.30;38.60
69628;DHT22;56850;51.984;5.088;2022-07-25T15:09:32;29.40;38.30
69628;DHT22;56850;51.984;5.088;2022-07-25T15:11:59;29.40;37.30
69628;DHT22;56850;51.984;5.088;2022-07-25T15:14:26;29.40;37.60
69628;DHT22;56850;51.984;5.088;2022-07-25T15:16:53;29.30;37.50
69628;DHT22;56850;51.984;5.088;2022-07-25T15:19:20;29.20;37.80
69628;DHT22;56850;51.984;5.088;2022-07-25T15:21:46;29.20;38.10
69628;DHT22;56850;51.984;5.088;2022-07-25T15:24:13;29.00;38.50
69628;DHT22;56850;51.984;5.088;2022-07-25T15:26:40;29.00;38.80
69628;DHT22;56850;51.984;5.088;2022-07-25T15:29:08;29.00;39.10
69628;DHT22;56850;51.984;5.088;2022-07-25T15:31:36;29.00;39.20
69628;DHT22;56850;51.984;5.088;2022-07-25T15:34:04;28.80;39.20
69628;DHT22;56850;51.984;5.088;2022-07-25T15:36:31;28.50;39.60
69628;DHT22;56850;51.984;5.088;2022-07-25T15:38:58;28.50;39.70
69628;DHT22;56850;51.984;5.088;2022-07-25T15:41:24;28.40;39.40
69628;DHT22;56850;51.984;5.088;2022-07-25T15:43:52;28.40;39.80
69628;DHT22;56850;51.984;5.088;2022-07-25T15:46:19;28.50;39.90
69628;DHT22;56850;51.984;5.088;2022-07-25T15:48:47;28.60;39.80
69628;DHT22;56850;51.984;5.088;2022-07-25T15:51:15;28.60;40.00
69628;DHT22;56850;51.984;5.088;2022-07-25T15:53:45;28.60;40.00
69628;DHT22;56850;51.984;5.088;2022-07-25T15:56:15;28.50;40.20
69628;DHT22;56850;51.984;5.088;2022-07-25T15:58:42;28.30;40.20
69628;DHT22;56850;51.984;5.088;2022-07-25T16:01:10;28.10;40.40
69628;DHT22;56850;51.984;5.088;2022-07-25T16:03:37;27.90;41.00
69628;DHT22;56850;51.984;5.088;2022-07-25T16:06:04;27.90;41.40
69628;DHT22;56850;51.984;5.088;2022-07-25T16:08:31;27.80;41.10
69628;DHT22;56850;51.984;5.088;2022-07-25T16:10:58;27.80;41.30
69628;DHT22;56850;51.984;5.088;2022-07-25T16:13:25;27.90;41.10
69628;DHT22;56850;51.984;5.088;2022-07-25T16:15:52;27.90;40.90
69628;DHT22;56850;51.984;5.088;2022-07-25T16:18:19;28.00;40.60
69628;DHT22;56850;51.984;5.088;2022-07-25T16:20:46;28.10;40.60
69628;DHT22;56850;51.984;5.088;2022-07-25T16:23:13;28.20;40.60
69628;DHT22;56850;51.984;5.088;2022-07-25T16:25:42;28.10;40.30
69628;DHT22;56850;51.984;5.088;2022-07-25T16:28:09;28.00;40.60
69628;DHT22;56850;51.984;5.088;2022-07-25T16:30:36;27.90;40.90
69628;DHT22;56850;51.984;5.088;2022-07-25T16:33:03;27.70;41.30
69628;DHT22;56850;51.984;5.088;2022-07-25T16:35:30;27.50;41.80
69628;DHT22;56850;51.984;5.088;2022-07-25T16:37:58;27.40;42.10
69628;DHT22;56850;51.984;5.088;2022-07-25T16:40:24;27.40;42.20
69628;DHT22;56850;51.984;5.088;2022-07-25T16:42:57;27.40;42.30
69628;DHT22;56850;51.984;5.088;2022-07-25T16:45:25;27.30;42.60
69628;DHT22;56850;51.984;5.088;2022-07-25T16:47:52;27.20;42.90
69628;DHT22;56850;51.984;5.088;2022-07-25T16:50:19;27.10;42.80
69628;DHT22;56850;51.984;5.088;2022-07-25T16:52:46;26.90;43.20
69628;DHT22;56850;51.984;5.088;2022-07-25T16:55:13;26.80;43.40
69628;DHT22;56850;51.984;5.088;2022-07-25T16:57:40;26.60;43.50
69628;DHT22;56850;51.984;5.088;2022-07-25T17:00:08;26.60;43.80
69628;DHT22;56850;51.984;5.088;2022-07-25T17:02:36;26.50;44.10
69628;DHT22;56850;51.984;5.088;2022-07-25T17:05:03;26.30;44.50
69628;DHT22;56850;51.984;5.088;2022-07-25T17:07:31;26.10;45.20
69628;DHT22;56850;51.984;5.088;2022-07-25T17:09:58;26.00;45.80
69628;DHT22;56850;51.984;5.088;2022-07-25T17:12:25;26.00;46.20
69628;DHT22;56850;51.984;5.088;2022-07-25T17:14:51;25.90;46.50
69628;DHT22;56850;51.984;5.088;2022-07-25T17:17:19;25.80;46.40
69628;DHT22;56850;51.984;5.088;2022-07-25T17:19:46;25.70;46.40
69628;DHT22;56850;51.984;5.088;2022-07-25T17:22:13;25.70;46.50
69628;DHT22;56850;51.984;5.088;2022-07-25T17:24:40;25.60;46.80
69628;DHT22;56850;51.984;5.088;2022-07-25T17:27:08;25.50;46.90
69628;DHT22;56850;51.984;5.088;2022-07-25T17:29:35;25.50;47.10
69628;DHT22;56850;51.984;5.088;2022-07-25T17:32:03;25.50;47.10
69628;DHT22;56850;51.984;5.088;2022-07-25T17:34:31;25.50;47.00
69628;DHT22;56850;51.984;5.088;2022-07-25T17:36:58;25.40;47.00
69628;DHT22;56850;51.984;5.088;2022-07-25T17:39:34;25.40;47.00
69628;DHT22;56850;51.984;5.088;2022-07-25T17:42:01;25.40;47.10
69628;DHT22;56850;51.984;5.088;2022-07-25T17:44:33;25.30;47.00
69628;DHT22;56850;51.984;5.088;2022-07-25T17:47:00;25.20;47.10
69628;DHT22;56850;51.984;5.088;2022-07-25T17:49:29;25.10;47.30
69628;DHT22;56850;51.984;5.088;2022-07-25T17:51:56;25.10;47.70
69628;DHT22;56850;51.984;5.088;2022-07-25T17:54:22;25.00;48.00
69628;DHT22;56850;51.984;5.088;2022-07-25T17:56:49;25.00;48.20
69628;DHT22;56850;51.984;5.088;2022-07-25T17:59:16;25.10;48.40
69628;DHT22;56850;51.984;5.088;2022-07-25T18:01:43;25.10;48.20
69628;DHT22;56850;51.984;5.088;2022-07-25T18:04:10;25.00;48.30
69628;DHT22;56850;51.984;5.088;2022-07-25T18:06:37;24.80;48.60
69628;DHT22;56850;51.984;5.088;2022-07-25T18:09:04;24.80;48.80
69628;DHT22;56850;51.984;5.088;2022-07-25T18:11:31;24.80;49.00
69628;DHT22;56850;51.984;5.088;2022-07-25T18:13:58;24.80;49.00
69628;DHT22;56850;51.984;5.088;2022-07-25T18:16:25;24.80;49.00
69628;DHT22;56850;51.984;5.088;2022-07-25T18:18:53;24.80;49.10
69628;DHT22;56850;51.984;5.088;2022-07-25T18:21:19;24.70;49.20
69628;DHT22;56850;51.984;5.088;2022-07-25T18:23:46;24.70;49.40
69628;DHT22;56850;51.984;5.088;2022-07-25T18:26:14;24.70;49.60
69628;DHT22;56850;51.984;5.088;2022-07-25T18:28:40;24.60;49.80
69628;DHT22;56850;51.984;5.088;2022-07-25T18:31:08;24.60;49.90
69628;DHT22;56850;51.984;5.088;2022-07-25T18:33:36;24.50;50.20
69628;DHT22;56850;51.984;5.088;2022-07-25T18:36:03;24.40;50.50
69628;DHT22;56850;51.984;5.088;2022-07-25T18:38:33;24.30;50.80
69628;DHT22;56850;51.984;5.088;2022-07-25T18:41:01;24.30;51.00
69628;DHT22;56850;51.984;5.088;2022-07-25T18:43:50;24.40;51.00
69628;DHT22;56850;51.984;5.088;2022-07-25T18:46:17;24.40;51.00
69628;DHT22;56850;51.984;5.088;2022-07-25T18:48:46;24.30;51.30
69628;DHT22;56850;51.984;5.088;2022-07-25T18:51:13;24.20;51.70
69628;DHT22;56850;51.984;5.088;2022-07-25T18:53:40;24.10;51.80
69628;DHT22;56850;51.984;5.088;2022-07-25T18:56:13;24.10;52.00
69628;DHT22;56850;51.984;5.088;2022-07-25T18:58:40;24.10;52.20
69628;DHT22;56850;51.984;5.088;2022-07-25T19:01:07;24.10;52.40
69628;DHT22;56850;51.984;5.088;2022-07-25T19:03:35;24.00;52.60
69628;DHT22;56850;51.984;5.088;2022-07-25T19:06:03;24.00;52.70
69628;DHT22;56850;51.984;5.088;2022-07-25T19:08:31;24.10;52.70
69628;DHT22;56850;51.984;5.088;2022-07-25T19:10:58;24.10;52.80
69628;DHT22;56850;51.984;5.088;2022-07-25T19:13:25;24.00;53.10
69628;DHT22;56850;51.984;5.088;2022-07-25T19:16:12;23.90;53.20
69628;DHT22;56850;51.984;5.088;2022-07-25T19:18:40;24.00;53.30
69628;DHT22;56850;51.984;5.088;2022-07-25T19:21:07;24.00;53.30
69628;DHT22;56850;51.984;5.088;2022-07-25T19:23:34;23.90;53.60
69628;DHT22;56850;51.984;5.088;2022-07-25T19:26:01;23.90;53.70
69628;DHT22;56850;51.984;5.088;2022-07-25T19:28:28;24.00;53.80
69628;DHT22;56850;51.984;5.088;2022-07-25T19:30:56;24.00;53.80
69628;DHT22;56850;51.984;5.088;2022-07-25T19:33:23;24.10;53.80
69628;DHT22;56850;51.984;5.088;2022-07-25T19:35:50;24.10;54.00
69628;DHT22;56850;51.984;5.088;2022-07-25T19:38:18;24.10;54.30